Destinations Gdansk Lech Walesa Airport
Speedy Airlines destination Gdansk
Photo by Julia Volk
Book now
Flights starting at € 94.3 Book flight

Flights to Gdansk Lech Walesa Airport

Flight number From ETE Dispatch
SPY-2300 EGFF Cardiff International Airport 02:30
SPY-524 EHGG Groningen Airport Eelde 01:45

Flights from Gdansk Lech Walesa Airport

Flight number To ETE Dispatch
SPY-2301 EGFF Cardiff International Airport 02:30
SPY-525 EHGG Groningen Airport Eelde
About

Gdansk Lech Walesa Airport facts

Gdansk Lech Walesa Airport is located in Gdansk at an elevation of 149.0 meters or 489 feet.

Currently, Speedy Airlines serves 4 flights to and from Gdansk Lech Walesa Airport.

Detailed airport info

Route map

Weather

Current weather

METAR

METAR

Metar data retrieved Sunday, 21 July 2024 at 18:55 UTC

EPGD 211830Z 05006KT CAVOK 20/16 Q1011
Wind Temperature
6 kt 20c